Time;durP1;ratioP1;P1;durP2;ratioP2;P2;SDS_P1;SDS_P2;PMS_P1;PMS_P2;Temp;Humidity;BMP_temperature;BMP_pressure;BME280_temperature;BME280_humidity;BME280_pressure;Samples;Min_cycle;Max_cycle;Signal;HPM_P1;HPM_P2
2023/06/05 00:01:00;;;;;;;3.70;2.40;;;15.90;99.90;;;;;;5054836;28;20190;-53
2023/06/05 00:03:26;;;;;;;4.50;2.40;;;15.80;99.90;;;;;;5055353;28;20292;-53
2023/06/05 00:05:52;;;;;;;3.43;3.10;;;15.70;99.90;;;;;;5063810;28;20450;-55
2023/06/05 00:08:18;;;;;;;3.13;2.50;;;15.70;99.90;;;;;;5058729;28;20892;-54
2023/06/05 00:10:44;;;;;;;3.17;2.80;;;15.60;99.90;;;;;;5056501;28;20197;-54
2023/06/05 00:13:10;;;;;;;3.13;2.47;;;15.50;99.90;;;;;;5060622;28;20443;-54
2023/06/05 00:15:37;;;;;;;4.60;2.07;;;15.50;99.90;;;;;;5043666;28;20235;-53
2023/06/05 00:18:03;;;;;;;2.53;2.27;;;15.50;99.90;;;;;;5052488;28;20646;-56
2023/06/05 00:20:29;;;;;;;3.33;2.30;;;15.50;99.90;;;;;;5051209;28;20485;-58
2023/06/05 00:22:55;;;;;;;3.70;2.00;;;15.40;99.90;;;;;;5050968;28;20488;-55
2023/06/05 00:25:21;;;;;;;2.43;1.77;;;15.30;99.90;;;;;;5057273;28;20192;-58
2023/06/05 00:27:46;;;;;;;3.37;2.20;;;15.30;99.90;;;;;;5056510;28;20274;-53
2023/06/05 00:30:13;;;;;;;3.73;2.47;;;15.20;99.90;;;;;;5055272;28;20188;-52
2023/06/05 00:32:39;;;;;;;4.47;2.13;;;15.20;99.90;;;;;;5050514;28;20192;-53
2023/06/05 00:35:06;;;;;;;4.93;2.40;;;15.20;99.90;;;;;;5051228;28;20455;-54
2023/06/05 00:37:33;;;;;;;2.90;2.20;;;15.10;99.90;;;;;;5066147;28;20541;-53
2023/06/05 00:39:59;;;;;;;4.37;2.63;;;15.00;99.90;;;;;;5060251;28;20450;-53
2023/06/05 00:42:26;;;;;;;2.50;2.30;;;15.00;99.90;;;;;;5048729;28;20454;-54
2023/06/05 00:44:52;;;;;;;3.40;2.47;;;14.90;99.90;;;;;;5062677;28;20890;-54
2023/06/05 00:47:18;;;;;;;2.07;1.87;;;14.90;99.90;;;;;;5061095;28;20652;-53
2023/06/05 00:49:44;;;;;;;4.13;2.17;;;15.00;99.90;;;;;;5054845;28;20467;-53
2023/06/05 00:52:10;;;;;;;3.20;2.73;;;15.00;99.90;;;;;;5046768;28;20958;-52
2023/06/05 00:54:36;;;;;;;2.40;2.20;;;14.90;99.90;;;;;;5061651;28;20444;-55
2023/06/05 00:57:02;;;;;;;4.10;2.23;;;14.90;99.90;;;;;;5055224;28;20445;-53
2023/06/05 00:59:31;;;;;;;3.33;2.63;;;14.80;99.90;;;;;;5063569;28;20323;-56
2023/06/05 01:01:58;;;;;;;2.23;2.00;;;14.80;99.90;;;;;;5058596;28;20463;-53
2023/06/05 01:04:23;;;;;;;2.60;2.40;;;14.80;99.90;;;;;;5052670;28;20469;-53
2023/06/05 01:06:51;;;;;;;2.00;1.80;;;14.80;99.90;;;;;;5061817;28;20466;-54
2023/06/05 01:09:18;;;;;;;3.43;2.00;;;14.80;99.90;;;;;;5063486;28;20530;-55
2023/06/05 01:12:11;;;;;;;2.30;1.97;;;14.80;99.90;;;;;;5066554;28;20454;-52
2023/06/05 01:14:40;;;;;;;4.40;2.20;;;14.70;99.90;;;;;;5056351;28;20448;-54
2023/06/05 01:17:08;;;;;;;3.10;2.40;;;14.70;99.90;;;;;;5068438;28;20503;-54
2023/06/05 01:19:34;;;;;;;2.53;2.20;;;14.60;99.90;;;;;;5056357;28;20455;-53
2023/06/05 01:22:01;;;;;;;2.80;2.50;;;14.60;99.90;;;;;;5061315;28;20531;-53
2023/06/05 01:24:27;;;;;;;3.07;2.77;;;14.60;99.90;;;;;;5062311;28;20454;-53
2023/06/05 01:27:15;;;;;;;2.33;2.13;;;14.50;99.90;;;;;;5061199;28;20863;-53
2023/06/05 01:30:01;;;;;;;2.63;1.97;;;14.50;99.90;;;;;;5054852;28;20441;-54
2023/06/05 01:32:40;;;;;;;2.23;2.00;;;14.50;99.90;;;;;;5064171;28;20441;-53
2023/06/05 01:35:10;;;;;;;2.40;2.20;;;14.50;99.90;;;;;;5059943;28;20446;-56
2023/06/05 01:37:40;;;;;;;5.40;2.07;;;14.50;99.90;;;;;;5060298;28;20473;-55
2023/06/05 01:40:17;;;;;;;4.40;2.23;;;14.50;99.90;;;;;;5068236;28;20480;-52
2023/06/05 01:42:44;;;;;;;2.90;2.63;;;14.40;99.90;;;;;;5053256;28;20450;-53
2023/06/05 01:45:12;;;;;;;3.57;2.57;;;14.40;99.90;;;;;;5063495;28;20456;-53
2023/06/05 01:47:38;;;;;;;2.60;2.17;;;14.30;99.90;;;;;;5057249;28;20951;-55
2023/06/05 01:50:08;;;;;;;3.00;2.00;;;14.20;99.90;;;;;;5052823;28;20492;-53
2023/06/05 01:52:34;;;;;;;3.03;2.43;;;14.20;99.90;;;;;;5058851;28;20445;-53
2023/06/05 01:55:01;;;;;;;2.50;1.93;;;14.30;99.90;;;;;;5058020;28;20446;-53
2023/06/05 01:57:27;;;;;;;2.83;2.23;;;14.30;99.90;;;;;;5050247;28;20535;-53
2023/06/05 01:59:54;;;;;;;2.33;2.03;;;14.20;99.90;;;;;;5054486;28;20508;-53
2023/06/05 02:02:23;;;;;;;7.90;2.17;;;14.10;99.90;;;;;;5056432;28;20454;-53
2023/06/05 02:04:49;;;;;;;3.33;2.20;;;14.10;99.90;;;;;;5055303;28;20476;-55
2023/06/05 02:07:15;;;;;;;3.20;2.47;;;14.10;99.90;;;;;;5056381;28;20478;-53
2023/06/05 02:09:41;;;;;;;3.03;2.30;;;14.00;99.90;;;;;;5060145;28;20446;-51
2023/06/05 02:12:07;;;;;;;3.83;2.53;;;14.00;99.90;;;;;;5053685;28;21045;-54
2023/06/05 02:14:37;;;;;;;3.03;2.10;;;14.00;99.90;;;;;;5050044;28;20480;-52
2023/06/05 02:17:06;;;;;;;3.33;2.47;;;13.90;99.90;;;;;;5058508;28;20212;-55
2023/06/05 02:19:35;;;;;;;3.63;2.57;;;14.00;99.90;;;;;;5060007;28;20511;-53
2023/06/05 02:22:00;;;;;;;3.63;2.10;;;14.00;99.90;;;;;;5060128;28;20537;-54
2023/06/05 02:24:26;;;;;;;3.80;3.00;;;14.00;99.90;;;;;;5061266;28;20575;-54
2023/06/05 02:26:52;;;;;;;3.30;1.90;;;14.00;99.90;;;;;;5053195;28;20661;-53
2023/06/05 02:29:18;;;;;;;3.67;2.77;;;13.90;99.90;;;;;;5049989;28;20443;-51
2023/06/05 02:31:43;;;;;;;3.00;2.70;;;13.80;99.90;;;;;;5049186;28;20195;-53
2023/06/05 02:34:09;;;;;;;3.50;2.40;;;13.80;99.90;;;;;;5057824;28;20443;-53
2023/06/05 02:36:36;;;;;;;2.40;1.83;;;13.80;99.90;;;;;;5058709;28;20195;-53
2023/06/05 02:39:04;;;;;;;2.70;2.50;;;13.90;99.90;;;;;;5064009;28;20453;-51
2023/06/05 02:41:30;;;;;;;2.93;1.70;;;13.80;99.90;;;;;;5058125;28;20458;-54
2023/06/05 02:43:56;;;;;;;2.93;2.23;;;13.80;99.90;;;;;;5046131;28;20444;-55
2023/06/05 02:46:24;;;;;;;3.07;2.23;;;13.70;99.90;;;;;;5058855;28;20481;-52
2023/06/05 02:48:50;;;;;;;2.97;2.20;;;13.60;99.90;;;;;;5061751;28;20196;-55
2023/06/05 02:51:16;;;;;;;2.90;2.40;;;13.60;99.90;;;;;;5057414;28;20475;-53
2023/06/05 02:53:41;;;;;;;3.57;2.53;;;13.60;99.90;;;;;;5056370;28;20918;-54
2023/06/05 02:56:07;;;;;;;5.57;2.70;;;13.60;99.90;;;;;;5060655;28;20515;-54
2023/06/05 02:58:35;;;;;;;2.50;2.30;;;13.60;99.90;;;;;;5057252;28;20303;-52
2023/06/05 03:01:01;;;;;;;2.33;1.90;;;13.60;99.90;;;;;;5060834;28;20283;-55
2023/06/05 03:03:31;;;;;;;2.50;2.07;;;13.60;99.90;;;;;;5065555;28;20536;-52
2023/06/05 03:06:04;;;;;;;2.77;2.30;;;13.60;99.90;;;;;;5054601;28;20447;-55
2023/06/05 03:08:33;;;;;;;2.67;2.33;;;13.70;99.90;;;;;;5061717;28;20867;-52
2023/06/05 03:11:00;;;;;;;3.17;2.20;;;13.70;99.90;;;;;;5057564;28;20981;-54
2023/06/05 03:13:26;;;;;;;3.23;2.30;;;13.70;99.90;;;;;;5054855;28;20450;-56
2023/06/05 03:15:56;;;;;;;2.67;2.47;;;13.70;99.90;;;;;;5052483;28;20443;-53
2023/06/05 03:18:26;;;;;;;3.73;2.20;;;13.60;99.90;;;;;;5051969;28;20455;-53
2023/06/05 03:20:55;;;;;;;2.60;2.40;;;13.50;99.90;;;;;;5052171;28;20852;-54
2023/06/05 03:23:27;;;;;;;4.87;3.23;;;13.50;99.90;;;;;;5055438;28;20454;-55
2023/06/05 03:25:53;;;;;;;5.07;3.17;;;13.50;99.90;;;;;;5046171;28;20956;-53
2023/06/05 03:28:21;;;;;;;3.13;2.20;;;13.60;99.90;;;;;;5051657;28;20470;-56
2023/06/05 03:30:47;;;;;;;3.50;2.40;;;13.60;99.90;;;;;;5058047;28;20460;-54
2023/06/05 03:33:13;;;;;;;3.20;2.10;;;13.70;99.90;;;;;;5047179;28;20444;-53
2023/06/05 03:35:40;;;;;;;2.33;1.80;;;13.80;99.90;;;;;;5061862;28;20238;-55
2023/06/05 03:38:06;;;;;;;4.50;2.40;;;13.90;99.90;;;;;;5054188;28;20449;-55
2023/06/05 03:40:31;;;;;;;2.50;2.30;;;14.00;99.90;;;;;;5060718;28;20457;-54
2023/06/05 03:42:57;;;;;;;3.30;2.53;;;14.00;99.90;;;;;;5057562;28;20612;-53
2023/06/05 03:45:26;;;;;;;2.83;2.53;;;13.90;99.90;;;;;;5051528;28;20966;-54
2023/06/05 03:47:53;;;;;;;2.33;2.13;;;13.80;99.90;;;;;;5055615;28;20208;-52
2023/06/05 03:50:20;;;;;;;2.00;1.80;;;13.80;99.90;;;;;;5060940;28;20534;-54
2023/06/05 03:52:52;;;;;;;3.50;2.20;;;13.80;99.90;;;;;;5057722;28;20526;-52
2023/06/05 03:55:19;;;;;;;3.00;2.17;;;13.90;99.90;;;;;;5050728;28;20445;-53
2023/06/05 03:57:46;;;;;;;3.80;2.30;;;14.00;99.90;;;;;;5053614;28;20477;-55
2023/06/05 04:00:14;;;;;;;5.07;2.50;;;14.10;99.90;;;;;;5053953;28;20478;-54
2023/06/05 04:02:40;;;;;;;2.50;2.30;;;14.10;99.90;;;;;;5052680;28;20473;-54
2023/06/05 04:05:11;;;;;;;3.47;2.33;;;14.10;99.90;;;;;;5045923;28;20457;-55
2023/06/05 04:07:37;;;;;;;3.43;2.80;;;14.10;99.90;;;;;;5042692;28;20479;-54
2023/06/05 04:10:03;;;;;;;2.93;2.37;;;14.20;99.90;;;;;;5045382;28;20765;-56
2023/06/05 04:12:28;;;;;;;2.50;2.20;;;14.30;99.90;;;;;;5044122;28;20525;-55
2023/06/05 04:14:54;;;;;;;3.60;2.20;;;14.30;99.90;;;;;;5044006;28;20672;-56
2023/06/05 04:17:19;;;;;;;3.70;2.73;;;14.40;99.90;;;;;;5047506;28;20184;-56
2023/06/05 04:19:45;;;;;;;3.33;2.47;;;14.40;99.90;;;;;;5046225;28;20283;-57
2023/06/05 04:22:11;;;;;;;3.03;2.60;;;14.50;99.90;;;;;;5044910;28;21576;-56
2023/06/05 04:24:39;;;;;;;5.17;2.47;;;14.50;99.90;;;;;;5044089;28;20272;-55
2023/06/05 04:27:04;;;;;;;3.80;2.40;;;14.50;99.90;;;;;;5043332;28;20212;-55
2023/06/05 04:29:32;;;;;;;3.70;2.53;;;14.60;99.90;;;;;;5044910;28;20480;-55
2023/06/05 04:31:57;;;;;;;8.10;2.90;;;14.70;99.90;;;;;;5044114;28;20184;-55
2023/06/05 04:34:24;;;;;;;3.10;2.70;;;14.90;99.90;;;;;;5044577;28;20447;-55
2023/06/05 04:36:51;;;;;;;3.50;2.40;;;14.90;99.90;;;;;;5040150;28;20697;-55
2023/06/05 04:39:18;;;;;;;2.93;2.60;;;15.00;99.90;;;;;;5042464;28;20454;-56
2023/06/05 04:41:45;;;;;;;6.00;2.87;;;15.10;99.90;;;;;;5044847;28;20616;-55
2023/06/05 04:44:16;;;;;;;3.17;2.60;;;15.30;99.90;;;;;;5045334;28;20443;-55
2023/06/05 04:46:45;;;;;;;2.23;2.03;;;15.40;99.90;;;;;;5043895;28;20470;-55
2023/06/05 04:49:12;;;;;;;2.90;2.60;;;15.50;99.90;;;;;;5043567;28;20455;-55
2023/06/05 04:51:38;;;;;;;3.30;2.30;;;15.60;99.90;;;;;;5046642;28;20469;-55
2023/06/05 04:54:05;;;;;;;4.97;3.10;;;15.70;99.90;;;;;;5043522;28;20451;-55
2023/06/05 04:56:32;;;;;;;3.60;2.87;;;15.90;99.90;;;;;;5044918;28;20192;-55
2023/06/05 04:58:59;;;;;;;3.40;2.50;;;15.80;99.90;;;;;;5045563;28;20478;-56
2023/06/05 05:01:25;;;;;;;5.73;3.37;;;15.80;99.90;;;;;;5042076;28;21027;-55
2023/06/05 05:03:51;;;;;;;7.27;3.40;;;15.80;99.90;;;;;;5043412;28;20446;-55
2023/06/05 05:06:17;;;;;;;2.43;2.10;;;15.80;99.90;;;;;;5043287;28;20455;-55
2023/06/05 05:08:46;;;;;;;3.77;2.60;;;15.90;99.90;;;;;;5046102;28;20453;-55
2023/06/05 05:11:12;;;;;;;3.70;3.07;;;15.90;99.90;;;;;;5043720;28;20451;-56
2023/06/05 05:13:38;;;;;;;5.23;2.80;;;16.00;99.90;;;;;;5043715;28;20592;-55
2023/06/05 05:16:04;;;;;;;7.83;2.70;;;16.00;99.90;;;;;;5045595;28;20821;-55
2023/06/05 05:18:30;;;;;;;4.07;2.73;;;16.00;99.90;;;;;;5039459;28;20447;-55
2023/06/05 05:20:56;;;;;;;3.00;2.30;;;16.00;99.90;;;;;;5041621;28;20284;-56
2023/06/05 05:23:22;;;;;;;5.00;2.63;;;16.00;99.90;;;;;;5042015;28;20211;-55
2023/06/05 05:25:48;;;;;;;3.43;3.00;;;16.00;99.90;;;;;;5044310;28;20638;-55
2023/06/05 05:28:14;;;;;;;4.03;2.70;;;16.10;99.90;;;;;;5043000;28;20565;-56
2023/06/05 05:30:39;;;;;;;3.77;2.57;;;16.10;99.90;;;;;;5041817;28;20213;-55
2023/06/05 05:33:05;;;;;;;4.07;2.77;;;16.20;99.90;;;;;;5038580;28;20526;-55
2023/06/05 05:35:31;;;;;;;3.37;2.60;;;16.10;99.90;;;;;;5022583;28;20513;-55
2023/06/05 05:37:57;;;;;;;6.47;3.70;;;16.10;99.90;;;;;;5047895;28;20211;-54
2023/06/05 05:40:24;;;;;;;5.50;2.90;;;16.30;99.90;;;;;;5044159;28;20200;-56
2023/06/05 05:42:49;;;;;;;4.90;2.60;;;16.40;99.90;;;;;;5045402;28;20455;-56
2023/06/05 05:45:15;;;;;;;4.27;2.73;;;16.50;99.90;;;;;;5047570;28;20782;-55
2023/06/05 05:47:41;;;;;;;4.93;3.30;;;16.70;99.90;;;;;;5048283;28;20214;-55
2023/06/05 05:50:07;;;;;;;5.40;2.80;;;17.00;99.90;;;;;;5043127;28;20181;-56
2023/06/05 05:52:32;;;;;;;5.50;3.37;;;17.30;99.90;;;;;;5040044;28;20239;-55
2023/06/05 05:55:03;;;;;;;4.80;3.50;;;17.50;99.90;;;;;;5047160;28;20457;-56
2023/06/05 05:57:29;;;;;;;3.73;2.60;;;17.60;99.90;;;;;;5042667;28;20193;-55
2023/06/05 05:59:55;;;;;;;5.63;3.43;;;17.60;99.90;;;;;;5045745;28;20515;-56
2023/06/05 06:02:21;;;;;;;10.83;3.10;;;17.60;99.90;;;;;;5041403;28;20472;-57
2023/06/05 06:04:48;;;;;;;4.30;2.93;;;17.70;99.90;;;;;;5048897;28;20451;-57
2023/06/05 06:07:14;;;;;;;4.90;3.17;;;17.70;99.90;;;;;;5048684;28;20561;-57
2023/06/05 06:09:40;;;;;;;8.50;3.47;;;17.70;99.90;;;;;;5044699;28;20972;-57
2023/06/05 06:12:07;;;;;;;6.00;2.40;;;17.80;99.90;;;;;;5040196;28;20965;-58
2023/06/05 06:14:33;;;;;;;6.80;3.00;;;18.00;99.90;;;;;;5047529;28;20924;-57
2023/06/05 06:16:59;;;;;;;3.17;2.30;;;18.10;99.90;;;;;;5044843;28;21276;-57
2023/06/05 06:19:27;;;;;;;5.00;3.40;;;18.20;99.90;;;;;;5045891;28;20443;-58
2023/06/05 06:21:54;;;;;;;3.87;2.97;;;18.20;99.90;;;;;;5046215;28;20455;-57
2023/06/05 06:24:21;;;;;;;9.67;3.17;;;18.20;99.90;;;;;;5044032;28;20463;-58
2023/06/05 06:26:48;;;;;;;5.17;3.30;;;18.20;99.90;;;;;;5049826;28;20556;-57
2023/06/05 06:29:23;;;;;;;5.33;3.40;;;18.20;99.90;;;;;;5040253;28;20457;-58
2023/06/05 06:31:49;;;;;;;4.07;3.20;;;18.30;99.90;;;;;;5047042;28;20482;-56
2023/06/05 06:34:16;;;;;;;6.50;3.77;;;18.40;99.90;;;;;;5043192;28;21124;-57
2023/06/05 06:36:43;;;;;;;3.13;2.50;;;18.30;99.90;;;;;;5045925;28;20459;-57
2023/06/05 06:39:10;;;;;;;2.90;2.60;;;18.30;99.90;;;;;;5045354;28;20456;-58
2023/06/05 06:41:37;;;;;;;5.40;3.07;;;18.50;99.90;;;;;;5046454;28;20483;-56
2023/06/05 06:44:03;;;;;;;4.80;3.13;;;18.50;99.90;;;;;;5043486;28;20447;-57
2023/06/05 06:46:30;;;;;;;5.83;3.33;;;18.50;99.90;;;;;;5044558;28;20452;-58
2023/06/05 06:48:55;;;;;;;4.20;2.57;;;18.50;99.90;;;;;;5043833;28;22477;-57
2023/06/05 06:51:22;;;;;;;3.97;3.17;;;18.60;99.90;;;;;;5041567;28;20444;-57
2023/06/05 06:53:47;;;;;;;5.90;3.00;;;18.60;99.90;;;;;;5045118;28;20188;-58
2023/06/05 06:56:15;;;;;;;3.83;3.20;;;18.80;99.90;;;;;;5043146;28;20434;-58
2023/06/05 06:58:41;;;;;;;9.20;3.33;;;19.20;99.90;;;;;;5042791;28;20743;-56
2023/06/05 07:01:06;;;;;;;5.67;2.87;;;19.50;99.90;;;;;;5043412;28;20452;-57
2023/06/05 07:03:32;;;;;;;4.90;3.47;;;19.80;99.90;;;;;;5045552;28;20670;-57
2023/06/05 07:05:58;;;;;;;9.67;3.67;;;20.00;99.90;;;;;;5044308;28;20563;-58
2023/06/05 07:08:23;;;;;;;7.33;3.60;;;20.30;99.90;;;;;;5042495;28;20298;-59
2023/06/05 07:10:54;;;;;;;5.80;3.00;;;20.60;99.90;;;;;;5045773;28;20728;-57
2023/06/05 07:13:20;;;;;;;6.10;3.23;;;20.80;99.90;;;;;;5040750;28;20455;-58
2023/06/05 07:15:47;;;;;;;3.30;2.90;;;21.00;99.90;;;;;;5043659;28;20532;-58
2023/06/05 07:18:13;;;;;;;6.73;3.67;;;21.10;99.90;;;;;;5043847;28;20633;-58
2023/06/05 07:20:39;;;;;;;10.80;3.50;;;21.30;99.90;;;;;;5043811;28;20461;-58
2023/06/05 07:23:05;;;;;;;5.83;3.70;;;21.10;99.90;;;;;;5044950;28;20568;-57
2023/06/05 07:25:31;;;;;;;6.97;3.60;;;21.20;99.90;;;;;;5044033;28;20445;-58
2023/06/05 07:27:59;;;;;;;6.00;3.10;;;21.20;99.90;;;;;;5043761;28;20222;-58
2023/06/05 07:30:28;;;;;;;4.70;3.00;;;21.20;99.90;;;;;;5046781;28;20444;-58
2023/06/05 07:32:54;;;;;;;5.43;3.23;;;21.30;99.90;;;;;;5040392;28;20451;-58
2023/06/05 07:35:20;;;;;;;4.00;2.80;;;21.50;99.90;;;;;;5038928;28;20450;-56
2023/06/05 07:37:46;;;;;;;6.27;3.20;;;21.60;99.90;;;;;;5041946;28;20943;-58
2023/06/05 07:40:12;;;;;;;5.33;2.77;;;21.70;99.90;;;;;;5045641;28;20454;-57
2023/06/05 07:42:38;;;;;;;5.00;3.80;;;21.80;99.90;;;;;;5044087;28;20194;-57
2023/06/05 07:45:05;;;;;;;9.03;4.00;;;21.80;99.90;;;;;;5045405;28;20449;-57
2023/06/05 07:47:30;;;;;;;7.50;3.43;;;22.00;99.90;;;;;;5041313;28;20472;-59
2023/06/05 07:49:59;;;;;;;6.50;3.00;;;22.20;99.90;;;;;;5040925;28;20450;-57
2023/06/05 07:52:25;;;;;;;5.57;3.43;;;22.40;99.90;;;;;;5045433;28;20196;-58
2023/06/05 07:54:50;;;;;;;7.60;3.40;;;22.60;99.90;;;;;;5042844;28;20489;-57
2023/06/05 07:57:17;;;;;;;4.97;3.60;;;22.70;99.90;;;;;;5046847;28;20479;-58
2023/06/05 07:59:43;;;;;;;4.37;2.80;;;22.70;99.90;;;;;;5041532;28;20240;-58
2023/06/05 08:02:09;;;;;;;6.53;4.07;;;22.90;99.90;;;;;;5044592;28;20973;-58
2023/06/05 08:04:35;;;;;;;19.97;3.67;;;22.90;99.90;;;;;;5043805;28;20194;-57
2023/06/05 08:07:01;;;;;;;4.43;3.40;;;22.30;99.90;;;;;;5042257;28;20217;-57
2023/06/05 08:09:27;;;;;;;5.33;3.03;;;22.70;99.90;;;;;;5038618;28;20450;-58
2023/06/05 08:11:52;;;;;;;3.60;3.13;;;22.60;99.90;;;;;;5043874;28;20461;-58
2023/06/05 08:14:18;;;;;;;8.00;3.00;;;22.60;99.90;;;;;;5043353;28;20203;-57
2023/06/05 08:16:44;;;;;;;5.13;3.20;;;22.80;99.90;;;;;;5039499;28;20199;-58
2023/06/05 08:19:10;;;;;;;3.30;2.57;;;23.10;99.90;;;;;;5040578;28;20568;-58
2023/06/05 08:21:36;;;;;;;5.90;2.90;;;23.40;99.90;;;;;;5041539;28;20459;-59
2023/06/05 08:24:02;;;;;;;7.13;3.70;;;23.80;99.90;;;;;;5046286;28;20210;-57
2023/06/05 08:26:28;;;;;;;5.80;3.20;;;24.00;99.90;;;;;;5044161;28;20520;-57
2023/06/05 08:28:54;;;;;;;5.17;3.60;;;24.10;99.90;;;;;;5038491;28;20806;-57
2023/06/05 08:31:20;;;;;;;5.33;3.03;;;24.10;99.90;;;;;;5039847;28;20194;-58
2023/06/05 08:33:46;;;;;;;3.00;2.60;;;24.20;99.90;;;;;;5042491;28;20190;-57
2023/06/05 08:36:11;;;;;;;4.53;2.77;;;24.50;99.90;;;;;;5038533;28;20826;-58
2023/06/05 08:38:37;;;;;;;6.13;3.20;;;24.80;99.90;;;;;;5042943;28;20282;-58
2023/06/05 08:41:12;;;;;;;6.20;3.13;;;25.20;99.90;;;;;;5040364;28;20537;-58
2023/06/05 08:43:41;;;;;;;5.23;2.90;;;25.30;99.90;;;;;;5044297;28;20189;-58
2023/06/05 08:46:09;;;;;;;5.50;3.33;;;25.30;99.90;;;;;;5038528;28;20453;-59
2023/06/05 08:48:46;;;;;;;5.13;3.40;;;25.50;99.90;;;;;;5043206;28;20517;-58
2023/06/05 08:51:15;;;;;;;3.43;2.97;;;25.90;99.90;;;;;;5041862;28;20486;-59
2023/06/05 08:53:45;;;;;;;5.80;3.20;;;25.70;99.90;;;;;;5045444;28;20449;-58
2023/06/05 08:56:11;;;;;;;4.90;3.97;;;25.80;99.90;;;;;;5043640;28;20796;-57
2023/06/05 08:58:37;;;;;;;4.70;3.07;;;26.00;99.90;;;;;;5048962;28;21401;-58
2023/06/05 09:01:03;;;;;;;3.37;3.00;;;26.20;99.90;;;;;;5045688;28;20454;-57
2023/06/05 09:03:29;;;;;;;4.03;2.60;;;26.30;99.90;;;;;;5042349;28;20810;-59
2023/06/05 09:05:54;;;;;;;3.90;3.50;;;26.50;99.90;;;;;;5046406;28;20485;-58
2023/06/05 09:08:32;;;;;;;6.53;3.97;;;26.10;99.90;;;;;;5045822;28;20607;-59
2023/06/05 09:11:25;;;;;;;6.73;3.00;;;25.90;99.90;;;;;;5046130;28;20245;-56
2023/06/05 09:13:51;;;;;;;5.90;3.60;;;25.60;99.90;;;;;;5047305;28;20468;-58
2023/06/05 09:16:21;;;;;;;4.40;3.20;;;25.60;99.90;;;;;;5046932;28;20446;-57
2023/06/05 09:18:55;;;;;;;5.63;3.63;;;26.00;99.90;;;;;;5049120;28;20449;-57
2023/06/05 09:21:28;;;;;;;7.70;3.20;;;26.10;99.90;;;;;;5050377;28;20836;-58
2023/06/05 09:24:09;;;;;;;4.83;3.93;;;26.50;99.90;;;;;;5045782;28;20445;-57
2023/06/05 09:26:57;;;;;;;4.17;3.43;;;26.70;99.90;;;;;;5046047;28;20442;-58
2023/06/05 09:29:31;;;;;;;8.00;3.47;;;27.00;99.90;;;;;;5049822;28;20440;-57
2023/06/05 09:31:59;;;;;;;5.40;3.73;;;26.80;99.90;;;;;;5049516;28;20445;-58
2023/06/05 09:34:35;;;;;;;4.20;3.80;;;26.60;99.90;;;;;;5049777;28;20519;-58
2023/06/05 09:37:03;;;;;;;4.20;3.80;;;26.50;99.90;;;;;;5049706;28;20455;-57
2023/06/05 09:39:30;;;;;;;4.77;4.37;;;26.10;99.90;;;;;;5047575;28;20503;-57
2023/06/05 09:41:57;;;;;;;9.90;4.20;;;25.90;99.90;;;;;;5049380;28;21014;-58
2023/06/05 09:44:25;;;;;;;4.90;3.60;;;26.10;99.90;;;;;;5046568;28;20458;-57
2023/06/05 09:46:58;;;;;;;4.53;3.93;;;26.50;99.90;;;;;;5048961;28;20464;-58
2023/06/05 09:49:32;;;;;;;4.90;4.30;;;26.70;99.90;;;;;;5048496;28;20962;-58
2023/06/05 09:51:59;;;;;;;4.20;3.70;;;26.70;99.90;;;;;;5046065;28;21043;-58
2023/06/05 09:54:27;;;;;;;11.10;5.00;;;26.90;99.90;;;;;;5050597;28;20906;-57
2023/06/05 09:56:57;;;;;;;4.00;3.30;;;27.10;99.90;;;;;;5045972;28;20449;-58
2023/06/05 09:59:31;;;;;;;10.13;3.43;;;27.40;99.90;;;;;;5045020;28;20482;-58
2023/06/05 10:01:59;;;;;;;3.63;3.33;;;27.60;99.90;;;;;;5046616;28;20447;-57
2023/06/05 10:04:29;;;;;;;3.43;2.87;;;27.10;99.90;;;;;;5046714;28;20891;-59
2023/06/05 10:07:01;;;;;;;4.10;3.43;;;27.20;99.90;;;;;;5044184;28;20473;-59
2023/06/05 10:09:30;;;;;;;3.40;3.10;;;27.40;99.90;;;;;;5043420;28;20834;-59
2023/06/05 10:11:55;;;;;;;4.50;3.97;;;27.50;99.90;;;;;;5043742;28;20826;-57
2023/06/05 10:14:21;;;;;;;5.20;3.93;;;27.50;99.90;;;;;;5041071;28;20583;-59
2023/06/05 10:16:50;;;;;;;6.77;3.80;;;27.50;99.90;;;;;;5045603;28;20199;-58
2023/06/05 10:19:19;;;;;;;4.57;4.17;;;27.50;99.90;;;;;;5042678;28;20196;-58
2023/06/05 10:21:47;;;;;;;4.40;4.00;;;27.20;99.90;;;;;;5039510;28;20448;-58
2023/06/05 10:24:30;;;;;;;4.10;3.70;;;27.30;99.90;;;;;;5047143;28;20724;-58
2023/06/05 10:27:11;;;;;;;4.33;3.90;;;27.60;99.90;;;;;;5039289;28;20843;-59
2023/06/05 10:30:13;;;;;;;4.50;3.80;;;27.70;99.90;;;;;;5044389;28;20455;-58
2023/06/05 10:33:10;;;;;;;4.87;3.70;;;28.10;99.90;;;;;;5044674;28;20779;-59
2023/06/05 10:35:48;;;;;;;5.50;3.67;;;28.50;99.90;;;;;;5047416;28;20528;-59
2023/06/05 10:38:22;;;;;;;4.60;3.30;;;28.80;99.90;;;;;;5048233;28;20446;-59
2023/06/05 10:41:08;;;;;;;5.03;3.83;;;29.10;99.90;;;;;;5041574;28;20540;-59
2023/06/05 10:43:52;;;;;;;4.27;3.20;;;29.10;99.90;;;;;;5041543;28;20449;-57
2023/06/05 10:46:31;;;;;;;5.57;2.90;;;28.60;99.90;;;;;;5043215;28;20972;-59
2023/06/05 10:49:19;;;;;;;4.70;3.60;;;28.50;99.90;;;;;;5047196;28;20963;-57
2023/06/05 10:51:46;;;;;;;4.60;3.70;;;28.60;99.90;;;;;;5049332;28;20447;-59
2023/06/05 10:54:31;;;;;;;4.33;3.30;;;28.40;99.90;;;;;;5045163;28;20447;-58
2023/06/05 10:57:03;;;;;;;5.13;2.87;;;27.90;99.90;;;;;;5047424;28;20535;-58
2023/06/05 10:59:34;;;;;;;5.13;3.60;;;27.50;99.90;;;;;;5046535;28;20482;-59
2023/06/05 11:02:05;;;;;;;3.40;2.80;;;27.10;99.90;;;;;;5048737;28;22462;-58
2023/06/05 11:04:49;;;;;;;3.13;2.90;;;27.10;99.90;;;;;;5045077;28;20777;-59
2023/06/05 11:07:16;;;;;;;6.33;3.40;;;27.20;99.90;;;;;;5045109;28;20469;-59
2023/06/05 11:10:08;;;;;;;4.07;3.30;;;27.10;99.90;;;;;;5044403;28;20449;-59
2023/06/05 11:12:43;;;;;;;5.03;2.93;;;27.10;99.90;;;;;;5047057;28;20510;-59
2023/06/05 11:15:38;;;;;;;3.87;2.83;;;27.30;99.90;;;;;;5047910;28;20481;-59
2023/06/05 11:18:30;;;;;;;3.40;3.10;;;27.20;99.90;;;;;;5045582;28;20934;-58
2023/06/05 11:20:56;;;;;;;2.90;2.70;;;27.40;99.90;;;;;;5047398;28;20455;-59
2023/06/05 11:23:27;;;;;;;5.00;4.50;;;27.10;99.90;;;;;;5042926;28;20459;-59
2023/06/05 11:25:56;;;;;;;5.40;3.40;;;26.90;99.90;;;;;;5048831;28;20442;-60
2023/06/05 11:28:44;;;;;;;3.47;3.17;;;27.00;99.90;;;;;;5046240;28;20925;-60
2023/06/05 11:31:10;;;;;;;3.80;2.97;;;27.20;99.90;;;;;;5044271;28;20449;-59
2023/06/05 11:33:36;;;;;;;6.30;2.93;;;27.30;99.90;;;;;;5046959;28;20525;-59
2023/06/05 11:36:05;;;;;;;3.80;2.57;;;27.50;99.90;;;;;;5042672;28;20752;-58
2023/06/05 11:38:31;;;;;;;3.20;2.87;;;27.50;99.90;;;;;;5046074;28;20446;-58
2023/06/05 11:40:57;;;;;;;4.50;3.33;;;27.40;99.90;;;;;;5048332;28;21009;-57
2023/06/05 11:43:23;;;;;;;3.60;2.80;;;27.30;99.90;;;;;;5043988;28;20482;-58
2023/06/05 11:45:54;;;;;;;3.70;2.80;;;27.20;99.90;;;;;;5048432;28;20275;-58
2023/06/05 11:48:20;;;;;;;5.40;3.20;;;27.10;99.90;;;;;;5048629;28;20514;-58
2023/06/05 11:51:11;;;;;;;3.50;2.90;;;27.30;99.90;;;;;;5048585;28;20454;-57
2023/06/05 11:53:44;;;;;;;5.20;2.97;;;27.50;99.90;;;;;;5047534;28;20644;-59
2023/06/05 11:56:16;;;;;;;4.63;3.07;;;27.70;99.90;;;;;;5047282;28;20449;-58
2023/06/05 11:58:42;;;;;;;4.27;3.03;;;27.80;99.90;;;;;;5047697;28;20585;-58
2023/06/05 12:01:17;;;;;;;4.17;2.90;;;28.30;99.90;;;;;;5048378;28;20446;-57
2023/06/05 12:03:43;;;;;;;3.90;3.37;;;28.80;99.90;;;;;;5046759;28;20673;-57
2023/06/05 12:06:11;;;;;;;6.40;3.20;;;29.30;99.90;;;;;;5048050;28;20483;-57
2023/06/05 12:08:37;;;;;;;4.37;3.20;;;29.50;99.90;;;;;;5047660;28;20462;-58
2023/06/05 12:11:03;;;;;;;2.67;2.47;;;29.40;99.90;;;;;;5048038;28;20441;-60
2023/06/05 12:13:52;;;;;;;3.53;3.17;;;28.90;99.90;;;;;;5045341;28;20234;-58
2023/06/05 12:16:19;;;;;;;3.90;3.17;;;28.40;99.90;;;;;;5044096;28;20533;-61
2023/06/05 12:18:47;;;;;;;11.60;7.50;;;28.10;99.90;;;;;;5047461;28;20449;-59
2023/06/05 12:21:23;;;;;;;3.57;2.90;;;28.10;99.90;;;;;;5047570;28;20535;-60
2023/06/05 12:23:49;;;;;;;3.53;3.10;;;28.00;99.90;;;;;;5046282;28;20524;-59
2023/06/05 12:26:15;;;;;;;4.40;3.73;;;28.00;99.90;;;;;;5047345;28;20445;-58
2023/06/05 12:28:42;;;;;;;8.43;3.97;;;28.10;99.90;;;;;;5047379;28;20250;-57
2023/06/05 12:31:07;;;;;;;3.97;3.13;;;28.20;99.90;;;;;;5043070;28;20442;-57
2023/06/05 12:33:49;;;;;;;4.90;3.40;;;28.70;99.90;;;;;;5043736;28;20533;-58
2023/06/05 12:36:16;;;;;;;3.50;3.20;;;29.00;99.90;;;;;;5047764;28;20190;-57
2023/06/05 12:38:42;;;;;;;3.80;3.50;;;29.00;99.90;;;;;;5046836;28;20579;-58
2023/06/05 12:41:08;;;;;;;3.57;3.27;;;28.70;99.90;;;;;;5047651;28;20484;-59
2023/06/05 12:43:35;;;;;;;3.10;2.90;;;28.40;99.90;;;;;;5046471;28;20468;-58
2023/06/05 12:46:01;;;;;;;4.40;3.50;;;28.20;99.90;;;;;;5050871;28;20844;-58
2023/06/05 12:48:27;;;;;;;3.60;3.20;;;28.00;99.90;;;;;;5049204;28;20901;-59
2023/06/05 12:50:54;;;;;;;3.97;3.23;;;28.00;99.90;;;;;;5047983;28;20533;-59
2023/06/05 12:53:20;;;;;;;4.90;3.30;;;28.10;99.90;;;;;;5049336;28;20530;-58